sensor_id;sensor_type;location;lat;lon;timestamp;pressure;altitude;pressure_sealevel;temperature;humidity
59272;BME280;45043;51.068;7.026;2023-02-28T00:01:48;101759.00;;;-0.18;42.17
59272;BME280;45043;51.068;7.026;2023-02-28T00:04:48;101747.09;;;-0.22;42.16
59272;BME280;45043;51.068;7.026;2023-02-28T00:07:53;101764.34;;;-0.20;41.83
59272;BME280;45043;51.068;7.026;2023-02-28T00:10:53;101753.53;;;-0.28;42.01
59272;BME280;45043;51.068;7.026;2023-02-28T00:13:54;101761.91;;;-0.23;42.36
59272;BME280;45043;51.068;7.026;2023-02-28T00:16:54;101763.41;;;-0.19;42.43
59272;BME280;45043;51.068;7.026;2023-02-28T00:19:54;101758.28;;;-0.20;42.13
59272;BME280;45043;51.068;7.026;2023-02-28T00:22:56;101757.16;;;-0.16;42.29
59272;BME280;45043;51.068;7.026;2023-02-28T00:25:56;101744.75;;;-0.27;42.72
59272;BME280;45043;51.068;7.026;2023-02-28T00:28:56;101755.69;;;-0.20;42.62
59272;BME280;45043;51.068;7.026;2023-02-28T00:31:57;101756.81;;;-0.24;42.61
59272;BME280;45043;51.068;7.026;2023-02-28T00:34:57;101764.72;;;-0.26;42.56
59272;BME280;45043;51.068;7.026;2023-02-28T00:37:58;101756.22;;;-0.29;42.75
59272;BME280;45043;51.068;7.026;2023-02-28T00:40:58;101760.44;;;-0.27;42.77
59272;BME280;45043;51.068;7.026;2023-02-28T00:44:04;101766.41;;;-0.25;42.52
59272;BME280;45043;51.068;7.026;2023-02-28T00:47:06;101761.72;;;-0.34;43.25
59272;BME280;45043;51.068;7.026;2023-02-28T00:50:07;101758.88;;;-0.44;43.01
59272;BME280;45043;51.068;7.026;2023-02-28T00:53:10;101759.97;;;-0.48;43.41
59272;BME280;45043;51.068;7.026;2023-02-28T00:56:11;101753.53;;;-0.56;43.30
59272;BME280;45043;51.068;7.026;2023-02-28T00:59:13;101759.75;;;-0.59;43.42
59272;BME280;45043;51.068;7.026;2023-02-28T01:02:13;101758.28;;;-0.63;43.07
59272;BME280;45043;51.068;7.026;2023-02-28T01:05:14;101762.00;;;-0.67;43.40
59272;BME280;45043;51.068;7.026;2023-02-28T01:08:14;101764.78;;;-0.70;43.35
59272;BME280;45043;51.068;7.026;2023-02-28T01:11:17;101765.91;;;-0.74;43.33
59272;BME280;45043;51.068;7.026;2023-02-28T01:14:18;101757.53;;;-0.79;43.67
59272;BME280;45043;51.068;7.026;2023-02-28T01:17:19;101761.06;;;-0.80;43.54
59272;BME280;45043;51.068;7.026;2023-02-28T01:20:20;101756.97;;;-0.84;43.60
59272;BME280;45043;51.068;7.026;2023-02-28T01:23:21;101767.66;;;-0.89;43.71
59272;BME280;45043;51.068;7.026;2023-02-28T01:26:24;101765.13;;;-0.91;43.72
59272;BME280;45043;51.068;7.026;2023-02-28T01:29:24;101759.25;;;-0.94;43.90
59272;BME280;45043;51.068;7.026;2023-02-28T01:32:26;101757.59;;;-0.95;43.79
59272;BME280;45043;51.068;7.026;2023-02-28T01:35:28;101750.69;;;-0.96;43.61
59272;BME280;45043;51.068;7.026;2023-02-28T01:38:33;101756.94;;;-0.99;43.45
59272;BME280;45043;51.068;7.026;2023-02-28T01:41:34;101756.09;;;-0.99;43.70
59272;BME280;45043;51.068;7.026;2023-02-28T01:47:59;101747.63;;;-1.03;43.87
59272;BME280;45043;51.068;7.026;2023-02-28T01:51:07;101752.72;;;-1.01;43.89
59272;BME280;45043;51.068;7.026;2023-02-28T01:54:14;101743.97;;;-1.00;43.76
59272;BME280;45043;51.068;7.026;2023-02-28T01:57:19;101739.59;;;-1.00;44.06
59272;BME280;45043;51.068;7.026;2023-02-28T02:00:25;101743.63;;;-0.94;43.39
59272;BME280;45043;51.068;7.026;2023-02-28T02:03:30;101736.91;;;-0.98;43.63
59272;BME280;45043;51.068;7.026;2023-02-28T02:06:38;101738.75;;;-1.00;43.68
59272;BME280;45043;51.068;7.026;2023-02-28T02:09:44;101731.03;;;-1.02;43.44
59272;BME280;45043;51.068;7.026;2023-02-28T02:16:38;101731.53;;;-1.11;43.37
59272;BME280;45043;51.068;7.026;2023-02-28T02:26:55;101721.66;;;-1.20;43.75
59272;BME280;45043;51.068;7.026;2023-02-28T02:30:22;101721.38;;;-1.16;43.90
59272;BME280;45043;51.068;7.026;2023-02-28T02:40:14;101709.56;;;-1.21;43.84
59272;BME280;45043;51.068;7.026;2023-02-28T02:43:20;101712.22;;;-1.07;44.00
59272;BME280;45043;51.068;7.026;2023-02-28T02:46:33;101714.38;;;-0.99;43.93
59272;BME280;45043;51.068;7.026;2023-02-28T02:49:36;101705.31;;;-0.94;43.80
59272;BME280;45043;51.068;7.026;2023-02-28T02:52:44;101706.63;;;-0.87;44.04
59272;BME280;45043;51.068;7.026;2023-02-28T02:55:48;101710.25;;;-0.89;44.00
59272;BME280;45043;51.068;7.026;2023-02-28T02:58:58;101712.03;;;-0.90;43.74
59272;BME280;45043;51.068;7.026;2023-02-28T03:02:04;101710.38;;;-0.91;44.04
59272;BME280;45043;51.068;7.026;2023-02-28T03:05:23;101710.88;;;-1.00;44.15
59272;BME280;45043;51.068;7.026;2023-02-28T03:08:26;101715.91;;;-1.11;44.29
59272;BME280;45043;51.068;7.026;2023-02-28T03:11:28;101713.09;;;-1.22;44.60
59272;BME280;45043;51.068;7.026;2023-02-28T03:18:04;101706.44;;;-1.42;44.91
59272;BME280;45043;51.068;7.026;2023-02-28T03:21:21;101713.84;;;-1.50;45.09
59272;BME280;45043;51.068;7.026;2023-02-28T03:24:45;101707.81;;;-1.51;45.55
59272;BME280;45043;51.068;7.026;2023-02-28T03:34:34;101702.63;;;-1.37;44.89
59272;BME280;45043;51.068;7.026;2023-02-28T03:37:40;101700.56;;;-1.46;45.11
59272;BME280;45043;51.068;7.026;2023-02-28T03:40:48;101695.50;;;-1.49;45.52
59272;BME280;45043;51.068;7.026;2023-02-28T03:44:08;101703.50;;;-1.52;45.41
59272;BME280;45043;51.068;7.026;2023-02-28T03:47:14;101705.53;;;-1.57;45.14
59272;BME280;45043;51.068;7.026;2023-02-28T03:53:22;101700.59;;;-1.62;45.57
59272;BME280;45043;51.068;7.026;2023-02-28T03:56:37;101710.50;;;-1.68;45.67
59272;BME280;45043;51.068;7.026;2023-02-28T03:59:45;101704.81;;;-1.75;45.52
59272;BME280;45043;51.068;7.026;2023-02-28T04:02:48;101706.56;;;-1.75;45.43
59272;BME280;45043;51.068;7.026;2023-02-28T04:05:54;101704.81;;;-1.75;45.42
59272;BME280;45043;51.068;7.026;2023-02-28T04:08:55;101709.19;;;-1.75;45.02
59272;BME280;45043;51.068;7.026;2023-02-28T04:11:56;101717.94;;;-1.76;45.00
59272;BME280;45043;51.068;7.026;2023-02-28T04:14:56;101703.47;;;-1.82;45.00
59272;BME280;45043;51.068;7.026;2023-02-28T04:17:57;101713.66;;;-1.77;44.52
59272;BME280;45043;51.068;7.026;2023-02-28T04:21:00;101720.69;;;-1.79;45.06
59272;BME280;45043;51.068;7.026;2023-02-28T04:24:00;101716.59;;;-1.83;44.77
59272;BME280;45043;51.068;7.026;2023-02-28T04:27:01;101716.75;;;-1.87;44.93
59272;BME280;45043;51.068;7.026;2023-02-28T04:30:02;101717.69;;;-1.88;44.30
59272;BME280;45043;51.068;7.026;2023-02-28T04:33:02;101719.47;;;-1.88;44.71
59272;BME280;45043;51.068;7.026;2023-02-28T04:36:05;101721.03;;;-1.86;44.67
59272;BME280;45043;51.068;7.026;2023-02-28T04:39:07;101715.81;;;-1.86;44.41
59272;BME280;45043;51.068;7.026;2023-02-28T04:42:10;101723.31;;;-1.79;44.67
59272;BME280;45043;51.068;7.026;2023-02-28T04:45:11;101724.13;;;-1.79;44.40
59272;BME280;45043;51.068;7.026;2023-02-28T04:48:11;101728.69;;;-1.82;44.16
59272;BME280;45043;51.068;7.026;2023-02-28T04:51:14;101726.25;;;-1.86;44.76
59272;BME280;45043;51.068;7.026;2023-02-28T04:54:15;101732.38;;;-1.87;44.19
59272;BME280;45043;51.068;7.026;2023-02-28T04:57:16;101729.00;;;-1.89;44.10
59272;BME280;45043;51.068;7.026;2023-02-28T05:00:16;101729.19;;;-1.92;44.43
59272;BME280;45043;51.068;7.026;2023-02-28T05:03:17;101723.16;;;-1.92;44.15
59272;BME280;45043;51.068;7.026;2023-02-28T05:06:18;101733.47;;;-1.91;44.44
59272;BME280;45043;51.068;7.026;2023-02-28T05:09:20;101734.41;;;-1.92;44.24
59272;BME280;45043;51.068;7.026;2023-02-28T05:12:20;101737.25;;;-1.96;44.48
59272;BME280;45043;51.068;7.026;2023-02-28T05:15:21;101746.09;;;-1.99;44.76
59272;BME280;45043;51.068;7.026;2023-02-28T05:18:21;101742.72;;;-2.01;43.90
59272;BME280;45043;51.068;7.026;2023-02-28T05:21:33;101743.81;;;-2.05;44.56
59272;BME280;45043;51.068;7.026;2023-02-28T05:24:34;101749.16;;;-2.08;44.18
59272;BME280;45043;51.068;7.026;2023-02-28T05:27:34;101750.09;;;-2.09;47.19
59272;BME280;45043;51.068;7.026;2023-02-28T05:30:35;101745.97;;;-1.81;47.21
59272;BME280;45043;51.068;7.026;2023-02-28T05:33:35;101735.31;;;-1.61;46.35
59272;BME280;45043;51.068;7.026;2023-02-28T05:36:37;101745.09;;;-1.34;46.49
59272;BME280;45043;51.068;7.026;2023-02-28T05:39:38;101746.91;;;-1.21;45.63
59272;BME280;45043;51.068;7.026;2023-02-28T05:42:38;101750.75;;;-1.12;45.37
59272;BME280;45043;51.068;7.026;2023-02-28T05:45:39;101745.84;;;-1.02;44.39
59272;BME280;45043;51.068;7.026;2023-02-28T05:48:40;101751.72;;;-0.99;44.40
59272;BME280;45043;51.068;7.026;2023-02-28T05:51:41;101751.97;;;-1.03;43.83
59272;BME280;45043;51.068;7.026;2023-02-28T05:54:41;101755.44;;;-1.03;43.82
59272;BME280;45043;51.068;7.026;2023-02-28T05:57:42;101758.78;;;-1.01;44.04
59272;BME280;45043;51.068;7.026;2023-02-28T06:00:43;101756.09;;;-0.99;45.12
59272;BME280;45043;51.068;7.026;2023-02-28T06:03:43;101756.94;;;-0.99;43.85
59272;BME280;45043;51.068;7.026;2023-02-28T06:06:45;101751.72;;;-0.99;43.41
59272;BME280;45043;51.068;7.026;2023-02-28T06:09:45;101751.13;;;-1.04;43.34
59272;BME280;45043;51.068;7.026;2023-02-28T06:12:46;101752.91;;;-1.04;43.30
59272;BME280;45043;51.068;7.026;2023-02-28T06:15:48;101752.16;;;-1.06;43.11
59272;BME280;45043;51.068;7.026;2023-02-28T06:18:49;101752.06;;;-1.05;43.39
59272;BME280;45043;51.068;7.026;2023-02-28T06:21:50;101753.56;;;-1.01;42.53
59272;BME280;45043;51.068;7.026;2023-02-28T06:24:52;101757.31;;;-0.91;43.09
59272;BME280;45043;51.068;7.026;2023-02-28T06:27:54;101761.97;;;-0.81;42.21
59272;BME280;45043;51.068;7.026;2023-02-28T06:30:54;101765.06;;;-0.75;42.05
59272;BME280;45043;51.068;7.026;2023-02-28T06:33:55;101770.94;;;-0.71;41.42
59272;BME280;45043;51.068;7.026;2023-02-28T06:36:56;101766.50;;;-0.69;41.57
59272;BME280;45043;51.068;7.026;2023-02-28T06:39:56;101768.72;;;-0.63;40.91
59272;BME280;45043;51.068;7.026;2023-02-28T06:42:57;101780.28;;;-0.53;41.42
59272;BME280;45043;51.068;7.026;2023-02-28T06:46:02;101772.56;;;-0.40;41.41
59272;BME280;45043;51.068;7.026;2023-02-28T06:49:03;101789.63;;;-0.20;41.15
59272;BME280;45043;51.068;7.026;2023-02-28T06:52:05;101787.72;;;-0.04;40.51
59272;BME280;45043;51.068;7.026;2023-02-28T06:55:07;101794.34;;;0.16;41.05
59272;BME280;45043;51.068;7.026;2023-02-28T06:58:08;101798.31;;;0.36;40.38
59272;BME280;45043;51.068;7.026;2023-02-28T07:01:15;101793.34;;;0.46;39.64
59272;BME280;45043;51.068;7.026;2023-02-28T07:04:15;101787.19;;;0.47;39.31
59272;BME280;45043;51.068;7.026;2023-02-28T07:07:16;101795.84;;;0.47;39.44
59272;BME280;45043;51.068;7.026;2023-02-28T07:10:16;101806.41;;;0.46;38.90
59272;BME280;45043;51.068;7.026;2023-02-28T07:13:17;101807.91;;;0.50;38.39
59272;BME280;45043;51.068;7.026;2023-02-28T07:16:18;101804.22;;;0.52;38.40
59272;BME280;45043;51.068;7.026;2023-02-28T07:19:18;101809.19;;;0.57;38.43
59272;BME280;45043;51.068;7.026;2023-02-28T07:22:19;101808.88;;;0.62;37.65
59272;BME280;45043;51.068;7.026;2023-02-28T07:25:19;101809.41;;;0.67;37.94
59272;BME280;45043;51.068;7.026;2023-02-28T07:28:20;101807.44;;;0.70;36.99
59272;BME280;45043;51.068;7.026;2023-02-28T07:31:20;101807.28;;;0.59;37.72
59272;BME280;45043;51.068;7.026;2023-02-28T07:34:21;101812.97;;;0.66;36.89
59272;BME280;45043;51.068;7.026;2023-02-28T07:37:22;101815.47;;;0.67;36.62
59272;BME280;45043;51.068;7.026;2023-02-28T07:40:22;101819.69;;;0.70;36.70
59272;BME280;45043;51.068;7.026;2023-02-28T07:43:23;101822.84;;;0.75;36.78
59272;BME280;45043;51.068;7.026;2023-02-28T07:46:23;101824.09;;;0.82;36.41
59272;BME280;45043;51.068;7.026;2023-02-28T07:49:24;101818.22;;;0.93;36.42
59272;BME280;45043;51.068;7.026;2023-02-28T07:52:24;101817.06;;;0.97;35.93
59272;BME280;45043;51.068;7.026;2023-02-28T07:55:25;101823.50;;;1.05;35.82
59272;BME280;45043;51.068;7.026;2023-02-28T07:58:26;101819.22;;;1.17;36.96
59272;BME280;45043;51.068;7.026;2023-02-28T08:01:26;101820.72;;;1.34;35.84
59272;BME280;45043;51.068;7.026;2023-02-28T08:04:27;101818.50;;;1.41;35.51
59272;BME280;45043;51.068;7.026;2023-02-28T08:07:28;101820.09;;;1.43;35.30
59272;BME280;45043;51.068;7.026;2023-02-28T08:10:28;101825.13;;;1.46;34.65
59272;BME280;45043;51.068;7.026;2023-02-28T08:13:29;101826.41;;;1.53;34.74
59272;BME280;45043;51.068;7.026;2023-02-28T08:16:30;101824.59;;;1.67;34.71
59272;BME280;45043;51.068;7.026;2023-02-28T08:19:31;101823.22;;;1.74;34.55
59272;BME280;45043;51.068;7.026;2023-02-28T08:22:32;101829.63;;;1.83;33.60
59272;BME280;45043;51.068;7.026;2023-02-28T08:25:32;101821.66;;;1.84;33.12
59272;BME280;45043;51.068;7.026;2023-02-28T08:28:33;101819.13;;;1.95;33.69
59272;BME280;45043;51.068;7.026;2023-02-28T08:31:33;101822.66;;;2.07;33.35
59272;BME280;45043;51.068;7.026;2023-02-28T08:34:35;101821.22;;;2.16;32.79
59272;BME280;45043;51.068;7.026;2023-02-28T08:37:36;101824.22;;;2.22;32.78
59272;BME280;45043;51.068;7.026;2023-02-28T08:40:36;101827.97;;;2.31;32.92
59272;BME280;45043;51.068;7.026;2023-02-28T08:43:37;101827.53;;;2.37;32.75
59272;BME280;45043;51.068;7.026;2023-02-28T08:46:38;101831.91;;;2.49;32.13
59272;BME280;45043;51.068;7.026;2023-02-28T08:49:39;101822.59;;;2.45;32.80
59272;BME280;45043;51.068;7.026;2023-02-28T08:52:42;101828.56;;;2.47;33.23
59272;BME280;45043;51.068;7.026;2023-02-28T08:55:42;101839.31;;;2.56;32.29
59272;BME280;45043;51.068;7.026;2023-02-28T08:58:43;101826.00;;;2.59;32.87
59272;BME280;45043;51.068;7.026;2023-02-28T09:01:44;101831.97;;;2.61;31.98
59272;BME280;45043;51.068;7.026;2023-02-28T09:04:45;101831.22;;;2.59;31.41
59272;BME280;45043;51.068;7.026;2023-02-28T09:07:45;101823.69;;;2.54;31.52
59272;BME280;45043;51.068;7.026;2023-02-28T09:10:46;101823.41;;;2.70;31.75
59272;BME280;45043;51.068;7.026;2023-02-28T09:13:47;101816.34;;;2.83;31.16
59272;BME280;45043;51.068;7.026;2023-02-28T09:16:48;101817.78;;;2.87;31.35
59272;BME280;45043;51.068;7.026;2023-02-28T09:19:49;101811.78;;;2.85;30.89
59272;BME280;45043;51.068;7.026;2023-02-28T09:22:49;101807.06;;;2.90;31.04
59272;BME280;45043;51.068;7.026;2023-02-28T09:25:52;101808.03;;;3.00;30.61
59272;BME280;45043;51.068;7.026;2023-02-28T09:28:54;101803.06;;;3.09;30.92
59272;BME280;45043;51.068;7.026;2023-02-28T09:31:55;101807.09;;;3.02;30.98
59272;BME280;45043;51.068;7.026;2023-02-28T09:34:57;101803.53;;;3.03;30.47
59272;BME280;45043;51.068;7.026;2023-02-28T09:37:58;101801.97;;;3.11;30.74
59272;BME280;45043;51.068;7.026;2023-02-28T09:41:01;101813.69;;;3.18;30.61
59272;BME280;45043;51.068;7.026;2023-02-28T09:44:04;101803.09;;;3.20;30.49
59272;BME280;45043;51.068;7.026;2023-02-28T09:47:27;101812.63;;;3.10;29.77
59272;BME280;45043;51.068;7.026;2023-02-28T09:50:34;101811.41;;;3.03;30.90
59272;BME280;45043;51.068;7.026;2023-02-28T09:53:37;101809.00;;;2.99;30.10
59272;BME280;45043;51.068;7.026;2023-02-28T09:56:40;101804.19;;;2.93;30.58
59272;BME280;45043;51.068;7.026;2023-02-28T09:59:59;101801.63;;;3.05;30.83
59272;BME280;45043;51.068;7.026;2023-02-28T10:03:25;101808.16;;;2.99;30.61
59272;BME280;45043;51.068;7.026;2023-02-28T10:06:35;101805.59;;;3.21;29.73
59272;BME280;45043;51.068;7.026;2023-02-28T10:09:38;101806.47;;;3.33;30.23
59272;BME280;45043;51.068;7.026;2023-02-28T10:12:40;101799.38;;;3.46;30.11
59272;BME280;45043;51.068;7.026;2023-02-28T10:15:47;101805.84;;;3.65;30.28
59272;BME280;45043;51.068;7.026;2023-02-28T10:18:54;101793.16;;;3.81;30.28
59272;BME280;45043;51.068;7.026;2023-02-28T10:22:00;101788.25;;;3.88;29.06
59272;BME280;45043;51.068;7.026;2023-02-28T10:25:15;101793.16;;;3.70;29.40
59272;BME280;45043;51.068;7.026;2023-02-28T10:28:17;101799.25;;;3.70;29.26
59272;BME280;45043;51.068;7.026;2023-02-28T10:31:20;101801.41;;;3.77;29.20
59272;BME280;45043;51.068;7.026;2023-02-28T10:34:21;101793.66;;;3.75;29.45
59272;BME280;45043;51.068;7.026;2023-02-28T10:37:22;101790.38;;;4.28;26.96
59272;BME280;45043;51.068;7.026;2023-02-28T10:43:23;101787.28;;;3.44;28.24
59272;BME280;45043;51.068;7.026;2023-02-28T10:46:33;101798.31;;;3.14;28.42
59272;BME280;45043;51.068;7.026;2023-02-28T10:49:34;101791.56;;;2.98;28.31
59272;BME280;45043;51.068;7.026;2023-02-28T10:52:44;101781.22;;;2.73;28.34
59272;BME280;45043;51.068;7.026;2023-02-28T10:56:02;101779.66;;;2.46;29.28
59272;BME280;45043;51.068;7.026;2023-02-28T10:59:26;101775.06;;;2.37;29.35
59272;BME280;45043;51.068;7.026;2023-02-28T11:02:36;101779.97;;;2.18;29.69
59272;BME280;45043;51.068;7.026;2023-02-28T11:05:38;101781.75;;;2.17;29.98
59272;BME280;45043;51.068;7.026;2023-02-28T11:08:51;101766.78;;;2.07;30.14
59272;BME280;45043;51.068;7.026;2023-02-28T11:11:52;101768.59;;;2.06;30.07
59272;BME280;45043;51.068;7.026;2023-02-28T11:14:56;101764.28;;;2.05;30.39
59272;BME280;45043;51.068;7.026;2023-02-28T11:17:59;101769.69;;;2.15;30.44
59272;BME280;45043;51.068;7.026;2023-02-28T11:21:01;101766.94;;;2.29;31.73
59272;BME280;45043;51.068;7.026;2023-02-28T11:36:41;101762.97;;;2.47;30.49
59272;BME280;45043;51.068;7.026;2023-02-28T11:39:45;101765.16;;;2.54;30.35
59272;BME280;45043;51.068;7.026;2023-02-28T11:43:02;101757.44;;;2.63;30.93
59272;BME280;45043;51.068;7.026;2023-02-28T11:55:39;101753.66;;;2.43;29.54
59272;BME280;45043;51.068;7.026;2023-02-28T12:15:28;101743.19;;;3.36;29.87
59272;BME280;45043;51.068;7.026;2023-02-28T12:19:01;101734.16;;;3.52;30.63
59272;BME280;45043;51.068;7.026;2023-02-28T12:22:26;101737.28;;;3.68;29.82
59272;BME280;45043;51.068;7.026;2023-02-28T12:25:52;101734.59;;;4.02;29.71
59272;BME280;45043;51.068;7.026;2023-02-28T12:29:19;101725.19;;;4.31;29.42
59272;BME280;45043;51.068;7.026;2023-02-28T12:35:56;101720.53;;;4.56;28.71
59272;BME280;45043;51.068;7.026;2023-02-28T12:39:05;101719.03;;;4.53;28.46
59272;BME280;45043;51.068;7.026;2023-02-28T12:42:13;101722.53;;;4.63;28.44
59272;BME280;45043;51.068;7.026;2023-02-28T12:45:20;101701.94;;;4.89;28.11
59272;BME280;45043;51.068;7.026;2023-02-28T12:48:42;101694.09;;;4.99;28.13
59272;BME280;45043;51.068;7.026;2023-02-28T12:51:44;101699.16;;;5.12;27.15
59272;BME280;45043;51.068;7.026;2023-02-28T12:54:54;101683.03;;;5.26;27.10
59272;BME280;45043;51.068;7.026;2023-02-28T13:02:02;101672.81;;;5.73;26.81
59272;BME280;45043;51.068;7.026;2023-02-28T13:05:23;101654.63;;;5.89;26.45
59272;BME280;45043;51.068;7.026;2023-02-28T13:11:50;101673.44;;;5.56;26.13
59272;BME280;45043;51.068;7.026;2023-02-28T13:15:04;101672.81;;;5.73;25.94
59272;BME280;45043;51.068;7.026;2023-02-28T13:18:20;101666.16;;;5.88;26.13
59272;BME280;45043;51.068;7.026;2023-02-28T13:21:30;101669.78;;;5.97;25.28
59272;BME280;45043;51.068;7.026;2023-02-28T13:27:36;101655.38;;;6.50;25.78
59272;BME280;45043;51.068;7.026;2023-02-28T13:40:32;101648.13;;;7.46;24.29
59272;BME280;45043;51.068;7.026;2023-02-28T13:44:00;101648.03;;;7.65;24.07
59272;BME280;45043;51.068;7.026;2023-02-28T13:53:37;101639.38;;;7.91;23.81
59272;BME280;45043;51.068;7.026;2023-02-28T13:57:01;101649.22;;;7.98;23.71
59272;BME280;45043;51.068;7.026;2023-02-28T14:07:04;101625.22;;;8.18;23.26
59272;BME280;45043;51.068;7.026;2023-02-28T14:10:07;101623.13;;;8.39;23.13
59272;BME280;45043;51.068;7.026;2023-02-28T14:13:39;101617.91;;;8.73;22.89
59272;BME280;45043;51.068;7.026;2023-02-28T14:16:47;101626.03;;;9.06;22.59
59272;BME280;45043;51.068;7.026;2023-02-28T14:19:50;101611.09;;;9.05;22.19
59272;BME280;45043;51.068;7.026;2023-02-28T14:23:06;101613.09;;;9.03;21.61
59272;BME280;45043;51.068;7.026;2023-02-28T14:26:17;101603.22;;;9.21;22.02
59272;BME280;45043;51.068;7.026;2023-02-28T14:35:44;101609.41;;;9.38;21.53
59272;BME280;45043;51.068;7.026;2023-02-28T14:38:55;101605.72;;;9.65;21.48
59272;BME280;45043;51.068;7.026;2023-02-28T14:41:57;101603.44;;;10.19;21.51
59272;BME280;45043;51.068;7.026;2023-02-28T14:45:04;101602.22;;;10.79;21.77
59272;BME280;45043;51.068;7.026;2023-02-28T14:48:09;101605.97;;;11.40;21.00
59272;BME280;45043;51.068;7.026;2023-02-28T14:51:10;101599.31;;;11.76;20.56
59272;BME280;45043;51.068;7.026;2023-02-28T14:54:15;101608.44;;;12.04;20.13
59272;BME280;45043;51.068;7.026;2023-02-28T14:57:28;101609.44;;;12.41;20.10
59272;BME280;45043;51.068;7.026;2023-02-28T15:00:31;101597.81;;;12.72;19.51
59272;BME280;45043;51.068;7.026;2023-02-28T15:03:35;101599.13;;;12.90;19.14
59272;BME280;45043;51.068;7.026;2023-02-28T15:06:36;101593.78;;;13.05;19.20
59272;BME280;45043;51.068;7.026;2023-02-28T15:09:36;101585.16;;;13.03;18.74
59272;BME280;45043;51.068;7.026;2023-02-28T15:12:37;101591.94;;;13.21;18.92
59272;BME280;45043;51.068;7.026;2023-02-28T15:16:01;101584.56;;;13.59;18.31
59272;BME280;45043;51.068;7.026;2023-02-28T15:22:12;101577.94;;;13.91;17.77
59272;BME280;45043;51.068;7.026;2023-02-28T15:25:19;101577.16;;;13.97;17.71
59272;BME280;45043;51.068;7.026;2023-02-28T15:28:22;101573.81;;;14.17;17.78
59272;BME280;45043;51.068;7.026;2023-02-28T15:31:31;101570.66;;;14.97;17.27
59272;BME280;45043;51.068;7.026;2023-02-28T15:34:42;101575.53;;;16.36;16.59
59272;BME280;45043;51.068;7.026;2023-02-28T15:37:52;101568.69;;;18.38;14.80
59272;BME280;45043;51.068;7.026;2023-02-28T15:40:55;101566.00;;;20.14;14.08
59272;BME280;45043;51.068;7.026;2023-02-28T15:47:27;101571.59;;;21.52;12.79
59272;BME280;45043;51.068;7.026;2023-02-28T15:50:28;101572.63;;;22.13;11.79
59272;BME280;45043;51.068;7.026;2023-02-28T15:53:34;101573.06;;;22.44;11.63
59272;BME280;45043;51.068;7.026;2023-02-28T15:56:43;101566.53;;;22.40;11.58
59272;BME280;45043;51.068;7.026;2023-02-28T15:59:59;101570.66;;;22.25;11.12
59272;BME280;45043;51.068;7.026;2023-02-28T16:03:01;101561.97;;;22.23;11.91
59272;BME280;45043;51.068;7.026;2023-02-28T16:06:26;101562.78;;;22.24;11.54
59272;BME280;45043;51.068;7.026;2023-02-28T16:09:31;101564.94;;;22.22;12.04
59272;BME280;45043;51.068;7.026;2023-02-28T16:12:34;101573.94;;;22.11;11.93
59272;BME280;45043;51.068;7.026;2023-02-28T16:15:38;101573.09;;;21.76;11.61
59272;BME280;45043;51.068;7.026;2023-02-28T16:18:42;101573.47;;;21.23;11.99
59272;BME280;45043;51.068;7.026;2023-02-28T16:21:43;101582.63;;;20.58;12.07
59272;BME280;45043;51.068;7.026;2023-02-28T16:24:44;101582.38;;;20.01;12.04
59272;BME280;45043;51.068;7.026;2023-02-28T16:27:47;101580.16;;;19.56;12.67
59272;BME280;45043;51.068;7.026;2023-02-28T16:30:53;101581.34;;;19.30;12.93
59272;BME280;45043;51.068;7.026;2023-02-28T16:33:53;101584.88;;;19.12;13.18
59272;BME280;45043;51.068;7.026;2023-02-28T16:36:54;101588.22;;;18.52;13.38
59272;BME280;45043;51.068;7.026;2023-02-28T16:39:54;101591.44;;;17.86;13.67
59272;BME280;45043;51.068;7.026;2023-02-28T16:42:58;101591.78;;;17.33;14.10
59272;BME280;45043;51.068;7.026;2023-02-28T16:46:00;101597.34;;;16.73;14.58
59272;BME280;45043;51.068;7.026;2023-02-28T16:49:01;101599.41;;;16.18;15.07
59272;BME280;45043;51.068;7.026;2023-02-28T16:52:02;101599.97;;;15.67;15.51
59272;BME280;45043;51.068;7.026;2023-02-28T16:55:03;101611.34;;;15.27;15.93
59272;BME280;45043;51.068;7.026;2023-02-28T16:58:03;101621.34;;;14.71;16.58
59272;BME280;45043;51.068;7.026;2023-02-28T17:01:04;101620.66;;;14.13;17.04
59272;BME280;45043;51.068;7.026;2023-02-28T17:04:05;101616.34;;;13.18;18.11
59272;BME280;45043;51.068;7.026;2023-02-28T17:07:11;101625.13;;;12.21;19.08
59272;BME280;45043;51.068;7.026;2023-02-28T17:10:18;101636.47;;;11.30;20.22
59272;BME280;45043;51.068;7.026;2023-02-28T17:13:19;101630.47;;;10.64;20.91
59272;BME280;45043;51.068;7.026;2023-02-28T17:16:29;101634.16;;;10.06;21.85
59272;BME280;45043;51.068;7.026;2023-02-28T17:19:30;101643.44;;;9.43;22.36
59272;BME280;45043;51.068;7.026;2023-02-28T17:22:32;101651.13;;;8.94;23.03
59272;BME280;45043;51.068;7.026;2023-02-28T17:25:32;101659.72;;;8.44;24.01
59272;BME280;45043;51.068;7.026;2023-02-28T17:28:33;101665.63;;;8.02;24.30
59272;BME280;45043;51.068;7.026;2023-02-28T17:31:33;101672.41;;;7.59;24.84
59272;BME280;45043;51.068;7.026;2023-02-28T17:34:38;101671.72;;;7.29;25.40
59272;BME280;45043;51.068;7.026;2023-02-28T17:37:39;101675.44;;;6.99;25.73
59272;BME280;45043;51.068;7.026;2023-02-28T17:40:40;101673.13;;;6.86;26.46
59272;BME280;45043;51.068;7.026;2023-02-28T17:43:41;101678.28;;;6.59;26.57
59272;BME280;45043;51.068;7.026;2023-02-28T17:46:42;101683.16;;;6.44;26.64
59272;BME280;45043;51.068;7.026;2023-02-28T17:49:43;101693.44;;;6.28;27.47
59272;BME280;45043;51.068;7.026;2023-02-28T17:52:44;101689.66;;;6.11;27.40
59272;BME280;45043;51.068;7.026;2023-02-28T17:55:44;101691.56;;;5.89;27.96
59272;BME280;45043;51.068;7.026;2023-02-28T17:58:45;101691.41;;;5.72;28.64
59272;BME280;45043;51.068;7.026;2023-02-28T18:01:46;101684.44;;;5.61;28.24
59272;BME280;45043;51.068;7.026;2023-02-28T18:04:46;101684.91;;;5.35;28.99
59272;BME280;45043;51.068;7.026;2023-02-28T18:07:46;101698.63;;;5.18;28.98
59272;BME280;45043;51.068;7.026;2023-02-28T18:10:47;101688.63;;;5.12;29.46
59272;BME280;45043;51.068;7.026;2023-02-28T18:13:49;101691.63;;;4.98;29.88
59272;BME280;45043;51.068;7.026;2023-02-28T18:16:52;101693.19;;;4.89;29.90